Villa Atamisqui, Argentina
Current Conditions -  °F | °C
As of 3:00 PM on Thursday 18 Dec 2014 (Local Time) from SANT Reporting Station
Scattered Clouds Scattered Clouds  
Wind Chill: 26°   Ceiling: Unl
Heat Index: 27°   Visibility: 6mi
Dew Point: 20°   Wind: 9mph
Humidity: 69%   Direction: 230°SW
Pressure: 29.91"   Gusts: NA
Location:  28.48°S, 63.8°W
Report Text: SANT 181800Z 23008KT 9999 SCT035 SCT040TCU 26/20 Q1013
Loading
Personal Weather Stations






























Interactive Weather Map New forecast layout! Learn more

10-Day Weather Forecast

Advertisements
Track Severe Weather on mobile